createdAt,value
2019-01-30T00:01:07.294Z,13.43
2019-01-30T00:03:36.336Z,13.40
2019-01-30T00:06:05.919Z,11.70
2019-01-30T00:08:34.727Z,15.60
2019-01-30T00:11:03.893Z,16.00
2019-01-30T00:13:32.756Z,14.30
2019-01-30T00:16:02.927Z,17.53
2019-01-30T00:18:32.511Z,14.73
2019-01-30T00:21:02.813Z,13.17
2019-01-30T00:23:31.707Z,10.30
2019-01-30T00:26:02.799Z,10.87
2019-01-30T00:28:31.963Z,11.60
2019-01-30T00:31:01.167Z,16.03
2019-01-30T00:33:32.730Z,13.40
2019-01-30T00:36:02.148Z,13.77
2019-01-30T00:38:31.308Z,14.60
2019-01-30T00:41:00.210Z,12.70
2019-01-30T00:43:29.107Z,11.93
2019-01-30T00:45:58.700Z,11.57
2019-01-30T00:48:27.900Z,15.93
2019-01-30T00:50:57.501Z,13.87
2019-01-30T00:53:27.116Z,14.40
2019-01-30T00:55:56.087Z,15.37
2019-01-30T00:58:25.921Z,13.43
2019-01-30T01:00:58.250Z,13.17
2019-01-30T01:03:27.902Z,10.27
2019-01-30T01:05:57.020Z,12.50
2019-01-30T01:08:26.595Z,14.40
2019-01-30T01:10:55.799Z,22.20
2019-01-30T01:13:24.972Z,14.93
2019-01-30T01:15:54.204Z,11.57
2019-01-30T01:18:23.492Z,12.07
2019-01-30T01:20:52.296Z,7.23
2019-01-30T01:23:22.223Z,13.57
2019-01-30T01:25:51.488Z,13.60
2019-01-30T01:28:20.691Z,12.50
2019-01-30T01:30:49.950Z,11.77
2019-01-30T01:33:19.159Z,13.50
2019-01-30T01:35:49.009Z,13.20
2019-01-30T01:38:18.360Z,9.73
2019-01-30T01:40:47.505Z,13.23
2019-01-30T01:43:16.700Z,11.87
2019-01-30T01:45:45.652Z,14.37
2019-01-30T01:48:15.303Z,9.80
2019-01-30T01:50:44.460Z,13.73
2019-01-30T01:53:14.148Z,12.30
2019-01-30T01:55:43.328Z,11.13
2019-01-30T01:58:12.505Z,11.53
2019-01-30T02:00:41.837Z,7.97
2019-01-30T02:03:11.000Z,11.57
2019-01-30T02:05:40.023Z,7.67
2019-01-30T02:08:09.292Z,8.90
2019-01-30T02:10:39.156Z,11.27
2019-01-30T02:13:08.046Z,9.50
2019-01-30T02:15:36.991Z,7.87
2019-01-30T02:18:08.487Z,6.13
2019-01-30T02:20:37.741Z,10.53
2019-01-30T02:23:06.714Z,3.30
2019-01-30T02:25:36.057Z,2.60
2019-01-30T02:28:04.984Z,4.80
2019-01-30T02:30:34.332Z,6.03
2019-01-30T02:33:03.587Z,6.93
2019-01-30T02:35:32.727Z,6.03
2019-01-30T02:38:01.720Z,1.53
2019-01-30T02:40:31.062Z,4.57
2019-01-30T02:43:00.516Z,2.60
2019-01-30T02:45:30.667Z,2.60
2019-01-30T02:47:59.527Z,4.97
2019-01-30T02:50:29.616Z,2.80
2019-01-30T02:52:59.108Z,1.90
2019-01-30T02:55:28.553Z,7.43
2019-01-30T02:57:57.732Z,7.83
2019-01-30T03:00:28.800Z,2.27
2019-01-30T03:02:58.420Z,4.67
2019-01-30T03:05:28.223Z,5.50
2019-01-30T03:07:57.712Z,2.40
2019-01-30T03:10:27.118Z,4.93
2019-01-30T03:12:56.423Z,7.40
2019-01-30T03:15:25.719Z,9.23
2019-01-30T03:17:54.674Z,7.07
2019-01-30T03:20:25.295Z,9.13
2019-01-30T03:22:54.243Z,9.20
2019-01-30T03:25:24.398Z,6.63
2019-01-30T03:27:53.779Z,13.00
2019-01-30T03:30:27.396Z,7.67
2019-01-30T03:32:56.659Z,8.57
2019-01-30T03:35:25.847Z,9.53
2019-01-30T03:37:55.255Z,7.20
2019-01-30T03:40:24.786Z,13.60
2019-01-30T03:42:54.179Z,7.40
2019-01-30T03:45:24.050Z,10.57
2019-01-30T03:47:53.304Z,9.67
2019-01-30T03:50:22.816Z,11.30
2019-01-30T03:53:11.231Z,13.80
2019-01-30T03:55:40.529Z,10.03
2019-01-30T03:58:10.342Z,12.50
2019-01-30T04:00:39.843Z,12.30
2019-01-30T04:03:09.455Z,13.53
2019-01-30T04:05:38.757Z,17.97
2019-01-30T04:08:08.259Z,11.83
2019-01-30T04:10:39.508Z,12.27
2019-01-30T04:13:08.704Z,12.47
2019-01-30T04:15:37.579Z,14.23
2019-01-30T04:18:06.787Z,8.30
2019-01-30T04:20:36.083Z,8.77
2019-01-30T04:23:05.154Z,12.30
2019-01-30T04:25:34.380Z,7.40
2019-01-30T04:28:03.311Z,5.50
2019-01-30T04:30:32.497Z,7.53
2019-01-30T04:33:01.408Z,5.33
2019-01-30T04:35:30.755Z,8.63
2019-01-30T04:38:00.265Z,7.13
2019-01-30T04:40:29.146Z,7.47
2019-01-30T04:42:58.608Z,15.73
2019-01-30T04:45:27.757Z,3.93
2019-01-30T04:47:56.924Z,10.07
2019-01-30T04:50:26.155Z,8.13
2019-01-30T04:52:55.251Z,8.30
2019-01-30T04:55:24.444Z,8.83
2019-01-30T04:57:53.555Z,10.40
2019-01-30T05:00:23.880Z,10.30
2019-01-30T05:02:53.525Z,6.03
2019-01-30T05:05:23.085Z,10.27
2019-01-30T05:07:52.278Z,8.93
2019-01-30T05:10:21.931Z,7.10
2019-01-30T05:12:51.400Z,5.93
2019-01-30T05:15:21.304Z,9.30
2019-01-30T05:17:50.988Z,7.63
2019-01-30T05:20:20.289Z,11.47
2019-01-30T05:22:49.539Z,6.60
2019-01-30T05:25:18.925Z,9.43
2019-01-30T05:27:48.122Z,7.20
2019-01-30T05:30:28.455Z,10.00
2019-01-30T05:32:57.396Z,10.40
2019-01-30T05:35:26.392Z,11.03
2019-01-30T05:37:55.335Z,2.40
2019-01-30T05:40:25.187Z,7.47
2019-01-30T05:42:54.100Z,8.07
2019-01-30T05:45:23.051Z,5.20
2019-01-30T05:47:52.691Z,10.17
2019-01-30T05:50:21.650Z,8.83
2019-01-30T05:52:50.554Z,9.30
2019-01-30T05:55:20.348Z,4.90
2019-01-30T05:57:49.781Z,9.30
2019-01-30T06:00:26.391Z,9.23
2019-01-30T06:02:56.390Z,8.27
2019-01-30T06:05:25.526Z,8.07
2019-01-30T06:07:54.936Z,8.67
2019-01-30T06:10:24.241Z,10.00
2019-01-30T06:12:53.146Z,6.23
2019-01-30T06:15:22.846Z,5.33
2019-01-30T06:17:52.140Z,10.93
2019-01-30T06:20:23.679Z,10.00
2019-01-30T06:22:52.723Z,9.10
2019-01-30T06:25:22.103Z,8.43
2019-01-30T06:27:51.289Z,6.70
2019-01-30T06:30:20.531Z,9.33
2019-01-30T06:32:49.511Z,4.40
2019-01-30T06:35:18.504Z,5.90
2019-01-30T06:37:48.176Z,8.63
2019-01-30T06:40:25.840Z,11.40
2019-01-30T06:42:54.878Z,5.97
2019-01-30T06:45:24.584Z,9.70
2019-01-30T06:47:54.084Z,9.20
2019-01-30T06:50:23.029Z,8.83
2019-01-30T06:52:52.023Z,11.70
2019-01-30T06:55:21.412Z,10.77
2019-01-30T06:57:51.252Z,12.53
2019-01-30T07:00:23.413Z,20.73
2019-01-30T07:02:53.556Z,14.60
2019-01-30T07:05:22.771Z,17.83
2019-01-30T07:07:52.380Z,14.97
2019-01-30T07:10:23.223Z,12.97
2019-01-30T07:12:52.891Z,20.20
2019-01-30T07:15:22.559Z,9.70
2019-01-30T07:17:51.863Z,16.80
2019-01-30T07:20:21.571Z,12.60
2019-01-30T07:22:50.889Z,8.10
2019-01-30T07:25:20.908Z,14.37
2019-01-30T07:27:50.615Z,10.90
2019-01-30T07:30:22.113Z,7.83
2019-01-30T07:32:51.084Z,17.17
2019-01-30T07:35:20.117Z,6.90
2019-01-30T07:37:49.709Z,3.27
2019-01-30T07:40:18.983Z,13.47
2019-01-30T07:42:48.312Z,13.40
2019-01-30T07:45:18.823Z,18.07
2019-01-30T07:47:48.439Z,12.57
2019-01-30T07:50:17.916Z,14.87
2019-01-30T07:52:47.253Z,15.40
2019-01-30T07:55:17.343Z,21.13
2019-01-30T07:57:46.677Z,17.33
2019-01-30T08:00:24.875Z,15.83
2019-01-30T08:02:54.085Z,18.00
2019-01-30T08:05:23.294Z,14.03
2019-01-30T08:07:52.720Z,13.23
2019-01-30T08:10:22.391Z,15.77
2019-01-30T08:12:51.679Z,13.17
2019-01-30T08:15:20.971Z,17.47
2019-01-30T08:17:50.291Z,11.27
2019-01-30T08:20:20.583Z,13.37
2019-01-30T08:22:50.462Z,12.60
2019-01-30T08:25:21.943Z,22.80
2019-01-30T08:27:52.196Z,20.07
2019-01-30T08:30:24.171Z,16.80
2019-01-30T08:33:03.719Z,17.43
2019-01-30T08:35:25.896Z,21.63
2019-01-30T08:37:55.136Z,17.63
2019-01-30T08:40:24.059Z,20.17
2019-01-30T08:42:53.349Z,8.53
2019-01-30T08:45:24.887Z,15.13
2019-01-30T08:47:53.934Z,22.13
2019-01-30T08:50:22.996Z,18.70
2019-01-30T08:52:52.411Z,16.50
2019-01-30T08:55:21.526Z,15.13
2019-01-30T08:57:50.668Z,17.60
2019-01-30T09:00:20.937Z,10.00
2019-01-30T09:02:50.062Z,10.70
2019-01-30T09:05:19.389Z,11.63
2019-01-30T09:07:49.219Z,15.57
2019-01-30T09:10:20.047Z,15.00
2019-01-30T09:12:49.325Z,9.27
2019-01-30T09:15:20.370Z,17.77
2019-01-30T09:17:49.568Z,15.80
2019-01-30T09:20:20.265Z,17.27
2019-01-30T09:22:49.620Z,16.80
2019-01-30T09:25:20.267Z,16.97
2019-01-30T09:27:49.646Z,21.37
2019-01-30T09:30:26.661Z,12.00
2019-01-30T09:32:55.902Z,19.43
2019-01-30T09:35:25.369Z,21.17
2019-01-30T09:37:55.055Z,16.80
2019-01-30T09:40:24.476Z,18.77
2019-01-30T09:42:54.253Z,19.27
2019-01-30T09:45:23.539Z,8.07
2019-01-30T09:47:52.815Z,18.50
2019-01-30T09:50:22.167Z,14.00
2019-01-30T09:52:51.377Z,20.67
2019-01-30T09:55:39.494Z,15.37
2019-01-30T09:58:08.906Z,18.43
2019-01-30T10:00:38.952Z,23.90
2019-01-30T10:03:08.167Z,20.77
2019-01-30T10:05:37.819Z,19.20
2019-01-30T10:08:08.289Z,11.20
2019-01-30T10:10:38.512Z,22.30
2019-01-30T10:13:08.115Z,29.13
2019-01-30T10:15:42.076Z,19.60
2019-01-30T10:18:12.697Z,17.77
2019-01-30T10:20:42.868Z,14.30
2019-01-30T10:23:12.252Z,12.70
2019-01-30T10:25:41.535Z,23.77
2019-01-30T10:28:16.637Z,20.93
2019-01-30T10:30:43.519Z,23.30
2019-01-30T10:33:13.092Z,18.80
2019-01-30T10:35:42.063Z,23.27
2019-01-30T10:38:11.314Z,19.80
2019-01-30T10:40:40.467Z,20.10
2019-01-30T10:43:09.720Z,18.30
2019-01-30T10:45:38.694Z,17.63
2019-01-30T10:48:08.000Z,19.67
2019-01-30T10:50:37.298Z,22.43
2019-01-30T10:53:06.701Z,20.57
2019-01-30T10:55:36.001Z,28.87
2019-01-30T10:58:08.033Z,22.50
2019-01-30T11:00:49.272Z,21.93
2019-01-30T11:03:18.948Z,21.40
2019-01-30T11:05:47.987Z,15.10
2019-01-30T11:08:17.352Z,20.70
2019-01-30T11:10:46.438Z,25.30
2019-01-30T11:13:16.021Z,20.77
2019-01-30T11:15:45.657Z,19.93
2019-01-30T11:18:16.091Z,23.27
2019-01-30T11:20:45.931Z,22.63
2019-01-30T11:23:34.340Z,22.13
2019-01-30T11:26:04.973Z,21.80
2019-01-30T11:28:34.272Z,21.87
2019-01-30T11:31:03.789Z,23.30
2019-01-30T11:33:33.359Z,18.87
2019-01-30T11:36:02.893Z,22.53
2019-01-30T11:38:31.907Z,21.70
2019-01-30T11:41:03.023Z,20.40
2019-01-30T11:43:31.967Z,17.60
2019-01-30T11:46:07.600Z,20.00
2019-01-30T11:48:36.892Z,14.90
2019-01-30T11:51:05.739Z,17.80
2019-01-30T11:53:35.056Z,16.63
2019-01-30T11:56:05.050Z,16.37
2019-01-30T11:58:34.816Z,17.60
2019-01-30T12:01:05.108Z,16.83
2019-01-30T12:03:34.715Z,20.30
2019-01-30T12:06:04.183Z,18.40
2019-01-30T12:08:33.726Z,20.83
2019-01-30T12:11:04.663Z,16.90
2019-01-30T12:13:33.526Z,14.50
2019-01-30T12:16:03.808Z,19.57
2019-01-30T12:18:33.175Z,14.83
2019-01-30T12:21:05.752Z,16.80
2019-01-30T12:23:35.156Z,16.90
2019-01-30T12:26:04.863Z,17.57
2019-01-30T12:28:33.659Z,13.10
2019-01-30T12:31:02.626Z,17.43
2019-01-30T12:33:31.956Z,16.03
2019-01-30T12:36:07.423Z,16.80
2019-01-30T12:38:36.499Z,17.27
2019-01-30T12:41:05.884Z,19.40
2019-01-30T12:43:34.873Z,15.00
2019-01-30T12:46:04.184Z,20.70
2019-01-30T12:48:33.887Z,19.53
2019-01-30T12:51:03.091Z,19.73
2019-01-30T12:53:34.675Z,14.27
2019-01-30T12:56:03.763Z,16.27
2019-01-30T12:58:32.935Z,16.93
2019-01-30T13:01:03.804Z,15.57
2019-01-30T13:03:32.651Z,18.90
2019-01-30T13:06:05.651Z,21.13
2019-01-30T13:08:34.783Z,15.93
2019-01-30T13:11:04.955Z,18.57
2019-01-30T13:13:34.167Z,15.47
2019-01-30T13:16:04.511Z,14.70
2019-01-30T13:18:33.995Z,11.37
2019-01-30T13:21:03.193Z,7.80
2019-01-30T13:23:32.798Z,13.30
2019-01-30T13:26:03.659Z,4.83
2019-01-30T13:28:32.732Z,5.50
2019-01-30T13:31:05.103Z,15.57
2019-01-30T13:33:34.301Z,14.33
2019-01-30T13:36:03.375Z,17.47
2019-01-30T13:38:32.727Z,13.63
2019-01-30T13:41:03.020Z,17.90
2019-01-30T13:43:31.911Z,11.13
2019-01-30T13:46:05.436Z,18.33
2019-01-30T13:48:34.893Z,15.90
2019-01-30T13:51:04.343Z,19.80
2019-01-30T13:53:33.538Z,15.13
2019-01-30T13:56:02.536Z,19.33
2019-01-30T13:58:31.557Z,15.63
2019-01-30T14:01:00.709Z,15.37
2019-01-30T14:03:29.903Z,16.30
2019-01-30T14:05:59.722Z,16.40
2019-01-30T14:08:28.691Z,16.87
2019-01-30T14:10:57.818Z,11.97
2019-01-30T14:13:26.699Z,11.60
2019-01-30T14:15:55.944Z,8.77
2019-01-30T14:18:25.516Z,10.30
2019-01-30T14:20:55.107Z,9.30
2019-01-30T14:23:24.079Z,8.50
2019-01-30T14:25:53.628Z,6.20
2019-01-30T14:28:23.497Z,4.43
2019-01-30T14:30:52.845Z,5.00
2019-01-30T14:33:21.857Z,5.27
2019-01-30T14:35:50.971Z,4.67
2019-01-30T14:38:20.712Z,5.00
2019-01-30T14:40:50.224Z,4.60
2019-01-30T14:43:19.308Z,4.77
2019-01-30T14:45:48.849Z,5.27
2019-01-30T14:48:18.419Z,5.07
2019-01-30T14:50:47.820Z,6.50
2019-01-30T14:53:16.603Z,3.53
2019-01-30T14:55:46.085Z,3.77
2019-01-30T14:58:15.668Z,5.00
2019-01-30T15:00:44.928Z,3.30
2019-01-30T15:03:14.464Z,3.10
2019-01-30T15:05:44.040Z,3.23
2019-01-30T15:08:13.491Z,2.50
2019-01-30T15:10:42.961Z,2.60
2019-01-30T15:13:12.148Z,1.77
2019-01-30T15:15:44.044Z,1.80
2019-01-30T15:18:12.261Z,2.27
2019-01-30T15:20:41.468Z,1.80
2019-01-30T15:23:10.976Z,2.57
2019-01-30T15:25:40.479Z,1.53
2019-01-30T15:28:09.715Z,4.30
2019-01-30T15:30:41.605Z,4.00
2019-01-30T15:33:12.759Z,2.87
2019-01-30T15:35:41.704Z,3.20
2019-01-30T15:38:12.547Z,2.30
2019-01-30T15:40:41.975Z,1.67
2019-01-30T15:43:11.656Z,2.20
2019-01-30T15:45:41.338Z,2.80
2019-01-30T15:48:10.703Z,3.00
2019-01-30T15:50:40.831Z,2.80
2019-01-30T15:53:15.820Z,2.40
2019-01-30T15:55:44.747Z,3.50
2019-01-30T15:58:14.078Z,4.60
2019-01-30T16:00:45.715Z,3.93
2019-01-30T16:03:14.683Z,3.20
2019-01-30T16:05:45.285Z,4.63
2019-01-30T16:08:14.811Z,5.83
2019-01-30T16:10:44.098Z,5.23
2019-01-30T16:13:13.571Z,5.43
2019-01-30T16:15:46.100Z,8.80
2019-01-30T16:18:16.030Z,4.73
2019-01-30T16:20:46.075Z,6.20
2019-01-30T16:23:15.419Z,6.03
2019-01-30T16:25:44.306Z,12.77
2019-01-30T16:28:13.260Z,5.67
2019-01-30T16:30:42.864Z,7.20
2019-01-30T16:33:12.039Z,5.97
2019-01-30T16:35:41.260Z,8.33
2019-01-30T16:38:10.515Z,6.70
2019-01-30T16:40:39.773Z,9.73
2019-01-30T16:43:09.095Z,7.47
2019-01-30T16:45:39.151Z,7.33
2019-01-30T16:48:09.027Z,8.17
2019-01-30T16:50:57.745Z,10.53
2019-01-30T16:53:27.352Z,8.87
2019-01-30T16:55:56.550Z,7.13
2019-01-30T16:58:25.752Z,8.57
2019-01-30T17:00:55.253Z,9.47
2019-01-30T17:03:24.864Z,10.20
2019-01-30T17:05:53.843Z,13.07
2019-01-30T17:08:23.469Z,8.07
2019-01-30T17:10:52.791Z,9.17
2019-01-30T17:13:21.997Z,9.13
2019-01-30T17:15:51.157Z,8.53
2019-01-30T17:18:20.462Z,10.50
2019-01-30T17:20:50.072Z,11.77
2019-01-30T17:23:18.999Z,12.53
2019-01-30T17:25:48.560Z,8.23
2019-01-30T17:28:17.795Z,8.30
2019-01-30T17:30:53.612Z,11.40
2019-01-30T17:33:22.815Z,10.27
2019-01-30T17:35:52.212Z,13.33
2019-01-30T17:38:21.456Z,8.50
2019-01-30T17:40:50.916Z,8.17
2019-01-30T17:43:20.120Z,8.67
2019-01-30T17:45:49.892Z,10.20
2019-01-30T17:48:18.891Z,7.80
2019-01-30T17:50:48.220Z,7.97
2019-01-30T17:53:18.169Z,5.93
2019-01-30T17:55:47.167Z,6.53
2019-01-30T17:58:16.861Z,9.70
2019-01-30T18:00:50.772Z,5.20
2019-01-30T18:03:20.048Z,13.33
2019-01-30T18:05:49.372Z,6.77
2019-01-30T18:08:20.401Z,4.73
2019-01-30T18:10:49.412Z,4.30
2019-01-30T18:13:18.700Z,7.17
2019-01-30T18:15:47.979Z,5.10
2019-01-30T18:18:17.293Z,6.17
2019-01-30T18:20:46.607Z,9.00
2019-01-30T18:23:15.571Z,5.63
2019-01-30T18:25:44.459Z,8.10
2019-01-30T18:28:13.729Z,6.37
2019-01-30T18:30:42.711Z,7.10
2019-01-30T18:33:11.653Z,7.97
2019-01-30T18:35:41.464Z,7.37
2019-01-30T18:38:10.623Z,8.27
2019-01-30T18:40:39.629Z,7.10
2019-01-30T18:43:09.051Z,9.43
2019-01-30T18:45:38.673Z,5.57
2019-01-30T18:48:08.061Z,5.33
2019-01-30T18:50:37.395Z,8.80
2019-01-30T18:53:06.803Z,7.13
2019-01-30T18:55:36.779Z,8.57
2019-01-30T18:58:05.920Z,8.80
2019-01-30T19:00:38.111Z,6.60
2019-01-30T19:03:17.898Z,8.47
2019-01-30T19:05:47.180Z,8.77
2019-01-30T19:08:16.496Z,6.60
2019-01-30T19:10:46.000Z,8.10
2019-01-30T19:13:15.503Z,7.60
2019-01-30T19:15:44.700Z,7.47
2019-01-30T19:18:15.576Z,5.23
2019-01-30T19:20:49.675Z,10.27
2019-01-30T19:23:19.256Z,6.83
2019-01-30T19:25:49.172Z,6.53
2019-01-30T19:28:18.087Z,5.93
2019-01-30T19:30:47.259Z,8.87
2019-01-30T19:33:16.539Z,6.70
2019-01-30T19:35:45.783Z,7.30
2019-01-30T19:38:14.683Z,6.70
2019-01-30T19:40:44.023Z,7.20
2019-01-30T19:43:13.347Z,6.00
2019-01-30T19:45:42.864Z,8.10
2019-01-30T19:48:12.459Z,4.80
2019-01-30T19:50:41.963Z,4.97
2019-01-30T19:53:10.944Z,5.80
2019-01-30T19:55:40.272Z,4.10
2019-01-30T19:58:12.171Z,5.60
2019-01-30T20:00:46.511Z,4.50
2019-01-30T20:03:18.338Z,4.77
2019-01-30T20:05:48.026Z,4.87
2019-01-30T20:08:17.118Z,5.10
2019-01-30T20:10:46.380Z,6.47
2019-01-30T20:13:15.328Z,3.63
2019-01-30T20:15:44.965Z,5.20
2019-01-30T20:18:13.841Z,3.70
2019-01-30T20:20:43.652Z,6.13
2019-01-30T20:23:15.385Z,4.43
2019-01-30T20:25:44.708Z,4.70
2019-01-30T20:28:13.656Z,6.87
2019-01-30T20:30:42.687Z,7.07
2019-01-30T20:33:11.671Z,4.27
2019-01-30T20:35:40.939Z,5.57
2019-01-30T20:38:10.591Z,4.83
2019-01-30T20:40:39.919Z,4.87
2019-01-30T20:43:08.924Z,4.80
2019-01-30T20:45:38.244Z,4.40
2019-01-30T20:48:07.819Z,3.40
2019-01-30T20:50:37.501Z,4.30
2019-01-30T20:53:07.268Z,4.43
2019-01-30T20:55:36.890Z,3.47
2019-01-30T20:58:05.955Z,3.40
2019-01-30T21:00:37.188Z,5.70
2019-01-30T21:03:07.180Z,3.80
2019-01-30T21:05:36.060Z,6.50
2019-01-30T21:08:05.893Z,3.73
2019-01-30T21:10:37.142Z,5.03
2019-01-30T21:13:07.335Z,7.90
2019-01-30T21:15:37.973Z,4.77
2019-01-30T21:18:07.731Z,6.73
2019-01-30T21:20:36.817Z,6.10
2019-01-30T21:23:05.891Z,3.33
2019-01-30T21:25:34.805Z,3.47
2019-01-30T21:28:04.564Z,4.33
2019-01-30T21:30:35.677Z,3.40
2019-01-30T21:33:05.186Z,6.90
2019-01-30T21:35:34.126Z,4.63
2019-01-30T21:38:03.188Z,7.77
2019-01-30T21:40:32.371Z,7.17
2019-01-30T21:43:01.919Z,7.50
2019-01-30T21:45:31.183Z,4.03
2019-01-30T21:48:00.509Z,2.20
2019-01-30T21:50:29.772Z,6.03
2019-01-30T21:52:59.275Z,4.67
2019-01-30T21:55:28.182Z,10.03
2019-01-30T21:57:57.612Z,4.10
2019-01-30T22:00:28.475Z,5.70
2019-01-30T22:02:57.702Z,7.07
2019-01-30T22:05:26.888Z,8.27
2019-01-30T22:08:01.069Z,3.63
2019-01-30T22:10:28.604Z,4.47
2019-01-30T22:12:57.479Z,7.30
2019-01-30T22:15:26.828Z,4.10
2019-01-30T22:17:56.079Z,7.50
2019-01-30T22:20:26.480Z,3.33
2019-01-30T22:22:55.535Z,3.77
2019-01-30T22:25:25.103Z,3.60
2019-01-30T22:27:55.164Z,3.37
2019-01-30T22:30:26.331Z,4.47
2019-01-30T22:32:55.877Z,4.00
2019-01-30T22:35:25.144Z,4.40
2019-01-30T22:37:54.019Z,5.13
2019-01-30T22:40:23.249Z,4.07
2019-01-30T22:42:52.732Z,6.53
2019-01-30T22:45:22.363Z,3.03
2019-01-30T22:47:51.770Z,3.70
2019-01-30T22:50:21.942Z,3.87
2019-01-30T22:52:51.077Z,4.03
2019-01-30T22:55:21.743Z,4.40
2019-01-30T22:57:51.460Z,3.90
2019-01-30T23:01:11.957Z,2.73
2019-01-30T23:03:51.854Z,3.07
2019-01-30T23:07:00.183Z,2.43
2019-01-30T23:10:13.720Z,6.77
2019-01-30T23:13:09.264Z,3.20
2019-01-30T23:15:50.158Z,3.67
2019-01-30T23:18:58.832Z,2.50
2019-01-30T23:21:33.390Z,4.43
2019-01-30T23:24:38.527Z,2.27
2019-01-30T23:27:26.282Z,12.00
2019-01-30T23:30:30.785Z,3.50
2019-01-30T23:33:32.016Z,3.53
2019-01-30T23:36:42.368Z,3.03
2019-01-30T23:39:58.635Z,5.87
2019-01-30T23:42:53.179Z,4.57
2019-01-30T23:45:35.352Z,3.07
2019-01-30T23:48:43.924Z,5.90
2019-01-30T23:51:36.024Z,5.10
2019-01-30T23:54:46.752Z,2.87
2019-01-30T23:57:53.776Z,1.90
